createdAt,value
2023-04-11T00:01:52.549Z,100708.50
2023-04-11T00:04:23.534Z,100705.84
2023-04-11T00:06:50.328Z,100706.06
2023-04-11T00:09:17.231Z,100703.38
2023-04-11T00:11:44.036Z,100710.53
2023-04-11T00:14:12.607Z,100714.03
2023-04-11T00:16:41.656Z,100710.72
2023-04-11T00:19:09.671Z,100715.22
2023-04-11T00:21:40.273Z,100709.25
2023-04-11T00:24:07.976Z,100704.94
2023-04-11T00:26:35.074Z,100709.25
2023-04-11T00:29:01.779Z,100702.50
2023-04-11T00:31:28.641Z,100702.69
2023-04-11T00:33:56.873Z,100700.84
2023-04-11T00:36:23.773Z,100705.72
2023-04-11T00:38:50.637Z,100711.44
2023-04-11T00:41:17.390Z,100712.44
2023-04-11T00:43:45.650Z,100718.13
2023-04-11T00:46:13.345Z,100720.78
2023-04-11T00:48:40.310Z,100722.00
2023-04-11T00:51:08.784Z,100724.84
2023-04-11T00:53:37.752Z,100729.53
2023-04-11T00:56:05.242Z,100727.03
2023-04-11T00:58:33.925Z,100726.78
2023-04-11T01:01:00.742Z,100730.63
2023-04-11T01:03:28.035Z,100729.19
2023-04-11T01:05:55.835Z,100729.56
2023-04-11T01:08:26.221Z,100733.44
2023-04-11T01:10:53.206Z,100735.44
2023-04-11T01:13:20.708Z,100738.28
2023-04-11T01:15:47.855Z,100729.66
2023-04-11T01:18:15.532Z,100732.72
2023-04-11T01:20:42.894Z,100737.38
2023-04-11T01:23:10.941Z,100728.78
2023-04-11T01:25:39.383Z,100736.31
2023-04-11T01:28:07.186Z,100728.34
2023-04-11T01:30:34.066Z,100727.88
2023-04-11T01:33:02.373Z,100729.69
2023-04-11T01:35:29.326Z,100730.09
2023-04-11T01:37:56.609Z,100726.97
2023-04-11T01:40:26.480Z,100729.19
2023-04-11T01:42:55.225Z,100731.19
2023-04-11T01:45:23.320Z,100725.06
2023-04-11T01:47:51.441Z,100727.28
2023-04-11T01:50:18.318Z,100728.63
2023-04-11T01:52:46.304Z,100733.28
2023-04-11T01:55:13.014Z,100726.72
2023-04-11T01:57:39.818Z,100737.50
2023-04-11T02:00:12.757Z,100735.00
2023-04-11T02:02:40.097Z,100741.34
2023-04-11T02:05:07.505Z,100738.06
2023-04-11T02:07:34.210Z,100732.72
2023-04-11T02:10:01.058Z,100736.75
2023-04-11T02:12:27.794Z,100738.59
2023-04-11T02:14:54.514Z,100735.31
2023-04-11T02:17:26.079Z,100738.31
2023-04-11T02:19:53.241Z,100739.53
2023-04-11T02:22:20.200Z,100743.19
2023-04-11T02:24:47.611Z,100749.84
2023-04-11T02:27:14.653Z,100750.84
2023-04-11T02:29:41.408Z,100742.25
2023-04-11T02:32:08.594Z,100744.25
2023-04-11T02:34:39.420Z,100746.09
2023-04-11T02:37:08.306Z,100745.28
2023-04-11T02:39:36.656Z,100754.22
2023-04-11T02:42:03.660Z,100757.72
2023-04-11T02:44:30.965Z,100762.41
2023-04-11T02:46:59.134Z,100765.59
2023-04-11T02:49:25.882Z,100759.63
2023-04-11T02:51:54.045Z,100755.53
2023-04-11T02:54:21.334Z,100762.84
2023-04-11T02:56:49.809Z,100762.00
2023-04-11T02:59:16.444Z,100773.63
2023-04-11T03:01:44.504Z,100770.97
2023-04-11T03:04:12.313Z,100769.13
2023-04-11T03:06:39.465Z,100770.13
2023-04-11T03:09:10.120Z,100766.47
2023-04-11T03:11:39.167Z,100770.63
2023-04-11T03:14:06.138Z,100774.94
2023-04-11T03:16:33.938Z,100766.97
2023-04-11T03:19:01.217Z,100771.28
2023-04-11T03:21:27.997Z,100778.19
2023-04-11T03:23:54.987Z,100776.38
2023-04-11T03:26:27.149Z,100780.06
2023-04-11T03:28:54.436Z,100783.88
2023-04-11T03:31:21.530Z,100774.28
2023-04-11T03:33:48.524Z,100781.41
2023-04-11T03:36:15.462Z,100776.47
2023-04-11T03:38:42.488Z,100780.13
2023-04-11T03:41:09.291Z,100777.66
2023-04-11T03:43:39.682Z,100778.66
2023-04-11T03:46:13.888Z,100787.63
2023-04-11T03:48:41.951Z,100794.13
2023-04-11T03:51:08.991Z,100794.47
2023-04-11T03:53:35.696Z,100790.34
2023-04-11T03:56:04.293Z,100798.50
2023-04-11T03:58:31.203Z,100800.31
2023-04-11T04:00:59.319Z,100796.84
2023-04-11T04:03:26.174Z,100820.72
2023-04-11T04:05:53.264Z,100817.25
2023-04-11T04:08:22.125Z,100818.25
2023-04-11T04:10:48.874Z,100820.25
2023-04-11T04:13:15.612Z,100825.38
2023-04-11T04:15:42.611Z,100816.94
2023-04-11T04:18:11.152Z,100828.38
2023-04-11T04:20:37.932Z,100825.09
2023-04-11T04:23:07.204Z,100825.09
2023-04-11T04:25:36.225Z,100830.56
2023-04-11T04:28:03.535Z,100833.22
2023-04-11T04:30:32.712Z,100841.19
2023-04-11T04:33:00.419Z,100847.31
2023-04-11T04:35:28.807Z,100852.81
2023-04-11T04:37:56.683Z,100853.97
2023-04-11T04:40:23.429Z,100851.50
2023-04-11T04:42:58.663Z,100868.25
2023-04-11T04:45:29.966Z,100860.31
2023-04-11T04:47:57.377Z,100863.94
2023-04-11T04:50:24.398Z,100866.59
2023-04-11T04:52:52.769Z,100872.09
2023-04-11T04:55:19.498Z,100875.72
2023-04-11T04:57:46.537Z,100873.91
2023-04-11T05:00:14.070Z,100876.38
2023-04-11T05:02:41.114Z,100873.91
2023-04-11T05:05:15.963Z,100883.53
2023-04-11T05:07:42.743Z,100883.69
2023-04-11T05:10:11.035Z,100885.34
2023-04-11T05:12:37.905Z,100889.16
2023-04-11T05:15:06.526Z,100897.28
2023-04-11T05:17:33.349Z,100907.91
2023-04-11T05:20:00.503Z,100911.38
2023-04-11T05:22:27.552Z,100916.06
2023-04-11T05:24:54.425Z,100921.53
2023-04-11T05:27:22.542Z,100919.06
2023-04-11T05:29:49.463Z,100919.41
2023-04-11T05:32:16.517Z,100935.50
2023-04-11T05:34:52.512Z,100934.00
2023-04-11T05:37:19.553Z,100941.31
2023-04-11T05:39:46.326Z,100939.84
2023-04-11T05:42:19.509Z,100944.47
2023-04-11T05:44:47.592Z,100948.13
2023-04-11T05:47:14.414Z,100954.63
2023-04-11T05:49:41.273Z,100959.25
2023-04-11T05:52:09.116Z,100962.91
2023-04-11T05:54:38.972Z,100956.47
2023-04-11T05:57:07.649Z,100961.78
2023-04-11T05:59:34.812Z,100973.22
2023-04-11T06:02:04.008Z,100968.91
2023-04-11T06:04:36.060Z,100977.03
2023-04-11T06:07:04.609Z,100967.25
2023-04-11T06:09:33.441Z,100978.69
2023-04-11T06:12:02.729Z,100983.31
2023-04-11T06:14:29.812Z,100970.41
2023-04-11T06:16:56.692Z,100973.69
2023-04-11T06:19:24.887Z,100972.03
2023-04-11T06:21:51.745Z,100981.66
2023-04-11T06:24:35.876Z,100983.31
2023-04-11T06:27:05.842Z,100981.34
2023-04-11T06:29:32.904Z,100983.81
2023-04-11T06:32:13.452Z,100992.41
2023-04-11T06:34:47.587Z,100994.44
2023-04-11T06:37:15.190Z,100994.22
2023-04-11T06:39:41.843Z,100995.72
2023-04-11T06:42:09.929Z,100993.91
2023-04-11T06:44:38.741Z,101003.34
2023-04-11T06:47:06.111Z,101011.13
2023-04-11T06:49:33.296Z,101011.63
2023-04-11T06:52:01.576Z,101016.59
2023-04-11T06:54:28.856Z,101018.88
2023-04-11T06:56:57.226Z,101016.91
2023-04-11T06:59:24.788Z,101013.06
2023-04-11T07:01:51.924Z,101014.38
2023-04-11T07:04:18.958Z,101003.25
2023-04-11T07:06:46.417Z,101016.00
2023-04-11T07:09:14.708Z,101016.31
2023-04-11T07:11:41.621Z,101026.41
2023-04-11T07:14:08.505Z,101026.88
2023-04-11T07:16:38.946Z,101028.84
2023-04-11T07:19:05.989Z,101025.50
2023-04-11T07:21:32.718Z,101035.78
2023-04-11T07:24:01.012Z,101025.28
2023-04-11T07:26:32.765Z,101023.09
2023-04-11T07:28:59.933Z,101030.72
2023-04-11T07:31:27.494Z,101028.69
2023-04-11T07:33:54.773Z,101031.84
2023-04-11T07:36:24.121Z,101031.31
2023-04-11T07:38:52.338Z,101029.31
2023-04-11T07:41:19.048Z,101028.97
2023-04-11T07:43:49.792Z,101040.88
2023-04-11T07:46:16.986Z,101035.25
2023-04-11T07:48:43.770Z,101054.47
2023-04-11T07:51:10.598Z,101041.50
2023-04-11T07:53:37.405Z,101048.13
2023-04-11T07:56:06.296Z,101055.75
2023-04-11T07:58:33.104Z,101055.88
2023-04-11T08:01:02.709Z,101056.16
2023-04-11T08:03:30.151Z,101049.03
2023-04-11T08:05:57.099Z,101048.84
2023-04-11T08:08:24.028Z,101053.78
2023-04-11T08:10:52.163Z,101065.75
2023-04-11T08:13:21.373Z,101050.06
2023-04-11T08:15:48.056Z,101048.69
2023-04-11T08:18:16.507Z,101066.13
2023-04-11T08:20:43.487Z,101074.94
2023-04-11T08:23:10.578Z,101071.44
2023-04-11T08:25:37.514Z,101083.25
2023-04-11T08:28:05.223Z,101091.22
2023-04-11T08:30:32.328Z,101094.09
2023-04-11T08:32:59.511Z,101095.75
2023-04-11T08:35:27.891Z,101100.03
2023-04-11T08:37:54.965Z,101097.03
2023-04-11T08:40:22.001Z,101111.97
2023-04-11T08:42:49.317Z,101106.38
2023-04-11T08:45:16.130Z,101112.03
2023-04-11T08:47:45.287Z,101114.03
2023-04-11T08:50:12.523Z,101123.50
2023-04-11T08:52:44.583Z,101110.31
2023-04-11T08:55:12.812Z,101125.56
2023-04-11T08:57:39.555Z,101124.00
2023-04-11T09:00:13.013Z,101138.44
2023-04-11T09:02:57.100Z,101126.28
2023-04-11T09:05:28.560Z,101119.56
2023-04-11T09:07:59.775Z,101121.88
2023-04-11T09:10:30.276Z,101118.69
2023-04-11T09:12:58.944Z,101116.97
2023-04-11T09:15:29.983Z,101109.25
2023-04-11T09:18:02.617Z,101126.81
2023-04-11T09:20:31.170Z,101130.41
2023-04-11T09:22:59.356Z,101130.16
2023-04-11T09:25:26.396Z,101126.56
2023-04-11T09:28:07.870Z,101141.34
2023-04-11T09:30:34.994Z,101133.19
2023-04-11T09:33:18.767Z,101139.16
2023-04-11T09:35:49.026Z,101130.16
2023-04-11T09:38:32.433Z,101129.84
2023-04-11T09:41:00.703Z,101124.91
2023-04-11T09:43:27.642Z,101111.59
2023-04-11T09:46:18.580Z,101128.69
2023-04-11T09:48:47.159Z,101130.34
2023-04-11T09:51:27.592Z,101143.91
2023-04-11T09:54:02.343Z,101136.19
2023-04-11T09:56:34.915Z,101148.81
2023-04-11T09:59:03.343Z,101144.94
2023-04-11T10:01:30.172Z,101141.75
2023-04-11T10:03:57.924Z,101143.84
2023-04-11T10:06:31.819Z,101153.47
2023-04-11T10:09:08.401Z,101137.94
2023-04-11T10:11:36.613Z,101147.09
2023-04-11T10:14:04.619Z,101149.94
2023-04-11T10:16:34.777Z,101146.44
2023-04-11T10:19:24.057Z,101149.28
2023-04-11T10:21:50.961Z,101156.09
2023-04-11T10:24:23.299Z,101144.88
2023-04-11T10:26:52.159Z,101149.84
2023-04-11T10:29:53.153Z,101161.94
2023-04-11T10:32:25.651Z,101169.41
2023-04-11T10:35:35.048Z,101151.84
2023-04-11T10:38:01.941Z,101155.41
2023-04-11T10:40:30.309Z,101154.84
2023-04-11T10:42:57.498Z,101158.59
2023-04-11T10:45:25.548Z,101158.88
2023-04-11T10:48:07.432Z,101161.44
2023-04-11T10:50:45.330Z,101162.06
2023-04-11T10:53:33.799Z,101165.00
2023-04-11T10:56:02.124Z,101161.59
2023-04-11T10:58:36.789Z,101158.34
2023-04-11T11:01:31.359Z,101165.78
2023-04-11T11:04:04.844Z,101156.41
2023-04-11T11:06:38.047Z,101156.66
2023-04-11T11:09:22.241Z,101161.22
2023-04-11T11:12:15.295Z,101170.50
2023-04-11T11:14:47.259Z,101172.59
2023-04-11T11:17:19.177Z,101172.66
2023-04-11T11:19:46.971Z,101174.75
2023-04-11T11:22:26.650Z,101182.84
2023-04-11T11:25:11.592Z,101178.75
2023-04-11T11:27:39.970Z,101187.22
2023-04-11T11:30:12.943Z,101175.56
2023-04-11T11:32:39.745Z,101180.19
2023-04-11T11:35:13.992Z,101184.03
2023-04-11T11:37:42.181Z,101174.63
2023-04-11T11:40:13.618Z,101178.81
2023-04-11T11:42:42.040Z,101200.63
2023-04-11T11:45:15.755Z,101194.25
2023-04-11T11:47:43.266Z,101197.31
2023-04-11T11:50:12.091Z,101193.19
2023-04-11T11:52:41.661Z,101190.09
2023-04-11T11:55:29.297Z,101194.59
2023-04-11T11:58:01.431Z,101200.13
2023-04-11T12:00:31.959Z,101195.38
2023-04-11T12:03:00.040Z,101209.06
2023-04-11T12:05:31.523Z,101196.91
2023-04-11T12:08:01.018Z,101200.81
2023-04-11T12:10:38.948Z,101210.66
2023-04-11T12:13:14.523Z,101205.69
2023-04-11T12:15:44.132Z,101208.16
2023-04-11T12:18:13.603Z,101205.50
2023-04-11T12:20:44.894Z,101210.84
2023-04-11T12:23:11.599Z,101211.66
2023-04-11T12:25:38.377Z,101196.47
2023-04-11T12:28:06.036Z,101207.41
2023-04-11T12:30:34.111Z,101216.31
2023-04-11T12:33:01.022Z,101210.84
2023-04-11T12:35:27.991Z,101210.09
2023-04-11T12:37:56.588Z,101211.97
2023-04-11T12:40:23.884Z,101219.59
2023-04-11T12:42:56.317Z,101211.22
2023-04-11T12:45:25.738Z,101210.63
2023-04-11T12:47:54.144Z,101214.56
2023-04-11T12:50:24.023Z,101216.84
2023-04-11T12:52:53.046Z,101211.56
2023-04-11T12:55:20.357Z,101205.66
2023-04-11T12:57:52.519Z,101208.81
2023-04-11T13:00:23.974Z,101222.84
2023-04-11T13:02:53.772Z,101216.13
2023-04-11T13:05:24.552Z,101204.25
2023-04-11T13:07:52.325Z,101205.28
2023-04-11T13:10:19.669Z,101215.19
2023-04-11T13:12:48.087Z,101219.72
2023-04-11T13:15:16.541Z,101203.13
2023-04-11T13:17:45.462Z,101214.88
2023-04-11T13:20:14.474Z,101208.09
2023-04-11T13:22:42.974Z,101219.84
2023-04-11T13:25:13.811Z,101208.09
2023-04-11T13:27:42.436Z,101207.31
2023-04-11T13:30:10.709Z,101209.59
2023-04-11T13:32:39.279Z,101212.88
2023-04-11T13:35:10.138Z,101210.22
2023-04-11T13:37:38.141Z,101221.53
2023-04-11T13:40:10.882Z,101223.38
2023-04-11T13:42:37.659Z,101222.56
2023-04-11T13:45:05.369Z,101224.81
2023-04-11T13:47:35.451Z,101228.75
2023-04-11T13:50:06.118Z,101229.13
2023-04-11T13:52:33.370Z,101224.59
2023-04-11T13:55:01.829Z,101223.72
2023-04-11T13:57:31.475Z,101211.13
2023-04-11T13:59:58.376Z,101213.38
2023-04-11T14:02:28.566Z,101216.22
2023-04-11T14:04:56.363Z,101216.22
2023-04-11T14:07:23.076Z,101211.69
2023-04-11T14:09:56.541Z,101214.81
2023-04-11T14:12:27.032Z,101198.56
2023-04-11T14:14:53.850Z,101193.63
2023-04-11T14:17:21.744Z,101195.91
2023-04-11T14:19:48.476Z,101199.66
2023-04-11T14:22:15.748Z,101191.47
2023-04-11T14:24:42.602Z,101184.47
2023-04-11T14:27:09.388Z,101190.47
2023-04-11T14:29:37.759Z,101183.25
2023-04-11T14:32:09.234Z,101193.75
2023-04-11T14:34:38.454Z,101178.94
2023-04-11T14:37:06.888Z,101193.16
2023-04-11T14:39:33.989Z,101189.47
2023-04-11T14:42:02.284Z,101177.94
2023-04-11T14:44:29.760Z,101176.91
2023-04-11T14:46:58.112Z,101183.09
2023-04-11T14:49:26.424Z,101174.81
2023-04-11T14:51:53.471Z,101171.31
2023-04-11T14:54:20.809Z,101177.31
2023-04-11T14:56:48.262Z,101165.97
2023-04-11T14:59:15.372Z,101175.84
2023-04-11T15:01:44.950Z,101168.88
2023-04-11T15:04:17.806Z,101166.22
2023-04-11T15:06:47.706Z,101171.97
2023-04-11T15:09:21.187Z,101166.59
2023-04-11T15:11:48.799Z,101163.94
2023-04-11T15:14:19.239Z,101167.81
2023-04-11T15:16:46.178Z,101149.91
2023-04-11T15:19:14.303Z,101160.44
2023-04-11T15:21:41.522Z,101153.03
2023-04-11T15:24:12.420Z,101144.19
2023-04-11T15:26:43.218Z,101143.97
2023-04-11T15:29:28.302Z,101141.31
2023-04-11T15:31:55.423Z,101141.31
2023-04-11T15:34:24.838Z,101134.69
2023-04-11T15:36:53.059Z,101129.34
2023-04-11T15:39:20.959Z,101138.22
2023-04-11T15:41:47.904Z,101139.66
2023-04-11T15:44:14.815Z,101136.78
2023-04-11T15:46:41.930Z,101124.81
2023-04-11T15:49:08.715Z,101137.38
2023-04-11T15:51:37.525Z,101124.22
2023-04-11T15:54:05.205Z,101131.25
2023-04-11T15:56:33.518Z,101134.94
2023-04-11T15:59:01.390Z,101134.31
2023-04-11T16:01:29.958Z,101134.69
2023-04-11T16:03:58.046Z,101120.50
2023-04-11T16:06:26.065Z,101119.69
2023-04-11T16:08:55.030Z,101109.41
2023-04-11T16:11:21.844Z,101115.56
2023-04-11T16:13:51.683Z,101112.69
2023-04-11T16:16:19.563Z,101110.22
2023-04-11T16:18:48.530Z,101111.25
2023-04-11T16:21:16.170Z,101107.94
2023-04-11T16:23:43.174Z,101103.00
2023-04-11T16:26:11.767Z,101105.06
2023-04-11T16:28:38.713Z,101095.19
2023-04-11T16:31:06.378Z,101097.84
2023-04-11T16:33:34.213Z,101093.31
2023-04-11T16:36:01.452Z,101091.88
2023-04-11T16:38:28.474Z,101094.53
2023-04-11T16:40:55.400Z,101087.75
2023-04-11T16:43:23.680Z,101083.63
2023-04-11T16:45:50.683Z,101081.31
2023-04-11T16:48:22.230Z,101085.25
2023-04-11T16:50:49.612Z,101073.28
2023-04-11T16:53:18.540Z,101071.88
2023-04-11T16:55:45.695Z,101068.13
2023-04-11T16:58:12.976Z,101074.91
2023-04-11T17:00:41.278Z,101072.88
2023-04-11T17:03:08.155Z,101074.09
2023-04-11T17:05:35.524Z,101068.28
2023-04-11T17:08:02.633Z,101062.53
2023-04-11T17:10:29.900Z,101064.19
2023-04-11T17:12:58.371Z,101065.41
2023-04-11T17:15:25.829Z,101055.31
2023-04-11T17:17:57.195Z,101051.00
2023-04-11T17:20:27.208Z,101051.38
2023-04-11T17:22:57.096Z,101043.16
2023-04-11T17:25:24.192Z,101037.16
2023-04-11T17:27:51.496Z,101040.25
2023-04-11T17:30:19.228Z,101033.84
2023-04-11T17:32:48.161Z,101032.41
2023-04-11T17:35:16.916Z,101044.72
2023-04-11T17:37:45.233Z,101033.59
2023-04-11T17:40:13.298Z,101038.53
2023-04-11T17:42:40.907Z,101029.44
2023-04-11T17:45:18.577Z,101023.50
2023-04-11T17:47:46.554Z,101026.97
2023-04-11T17:50:15.834Z,101021.19
2023-04-11T17:52:47.416Z,101013.78
2023-04-11T17:55:16.621Z,101012.72
2023-04-11T17:57:46.445Z,101007.78
2023-04-11T18:00:28.707Z,101010.84
2023-04-11T18:03:01.665Z,101005.25
2023-04-11T18:05:32.451Z,100998.47
2023-04-11T18:08:03.813Z,100998.03
2023-04-11T18:10:33.086Z,101002.09
2023-04-11T18:13:00.059Z,100994.50
2023-04-11T18:15:27.967Z,100995.50
2023-04-11T18:17:55.282Z,100999.78
2023-04-11T18:20:23.445Z,101001.59
2023-04-11T18:22:52.181Z,100997.88
2023-04-11T18:25:21.364Z,100999.25
2023-04-11T18:27:48.731Z,100994.72
2023-04-11T18:30:17.675Z,100998.78
2023-04-11T18:32:49.810Z,100997.69
2023-04-11T18:35:18.968Z,100993.97
2023-04-11T18:37:48.230Z,100984.28
2023-04-11T18:40:18.573Z,100991.84
2023-04-11T18:42:50.553Z,100982.16
2023-04-11T18:45:20.740Z,100989.06
2023-04-11T18:47:47.782Z,100981.81
2023-04-11T18:50:15.380Z,100982.41
2023-04-11T18:52:43.425Z,100976.84
2023-04-11T18:55:11.185Z,100975.19
2023-04-11T18:57:41.241Z,100979.03
2023-04-11T19:00:18.494Z,100980.88
2023-04-11T19:02:47.030Z,100979.44
2023-04-11T19:05:17.514Z,100974.28
2023-04-11T19:07:45.605Z,100974.47
2023-04-11T19:10:12.988Z,100960.50
2023-04-11T19:12:40.482Z,100958.69
2023-04-11T19:15:09.120Z,100955.41
2023-04-11T19:17:38.859Z,100964.22
2023-04-11T19:20:07.656Z,100955.41
2023-04-11T19:22:38.148Z,100951.91
2023-04-11T19:25:05.871Z,100944.28
2023-04-11T19:27:32.770Z,100948.78
2023-04-11T19:29:59.551Z,100939.97
2023-04-11T19:32:26.619Z,100945.28
2023-04-11T19:34:55.134Z,100938.13
2023-04-11T19:37:25.344Z,100936.28
2023-04-11T19:39:52.258Z,100940.63
2023-04-11T19:42:21.929Z,100940.63
2023-04-11T19:44:48.820Z,100935.28
2023-04-11T19:47:15.680Z,100931.78
2023-04-11T19:49:45.320Z,100928.31
2023-04-11T19:52:13.559Z,100922.16
2023-04-11T19:54:40.749Z,100921.31
2023-04-11T19:57:08.715Z,100916.00
2023-04-11T19:59:37.050Z,100916.00
2023-04-11T20:02:04.095Z,100905.34
2023-04-11T20:04:30.927Z,100903.06
2023-04-11T20:07:00.865Z,100892.59
2023-04-11T20:09:29.373Z,100893.44
2023-04-11T20:11:56.868Z,100888.09
2023-04-11T20:14:29.736Z,100882.78
2023-04-11T20:16:56.976Z,100881.13
2023-04-11T20:19:27.715Z,100877.81
2023-04-11T20:21:58.526Z,100874.13
2023-04-11T20:24:26.097Z,100866.16
2023-04-11T20:27:02.210Z,100863.28
2023-04-11T20:29:32.734Z,100857.34
2023-04-11T20:32:00.321Z,100858.97
2023-04-11T20:34:28.443Z,100858.16
2023-04-11T20:36:55.962Z,100861.66
2023-04-11T20:39:27.611Z,100849.53
2023-04-11T20:41:56.722Z,100843.38
2023-04-11T20:44:26.252Z,100842.56
2023-04-11T20:46:53.794Z,100841.53
2023-04-11T20:49:28.916Z,100836.22
2023-04-11T20:52:00.962Z,100819.41
2023-04-11T20:54:28.537Z,100822.88
2023-04-11T20:56:57.284Z,100820.22
2023-04-11T20:59:29.358Z,100813.06
2023-04-11T21:02:08.697Z,100803.22
2023-04-11T21:04:38.412Z,100796.25
2023-04-11T21:07:10.763Z,100784.78
2023-04-11T21:09:37.847Z,100781.91
2023-04-11T21:12:09.035Z,100778.25
2023-04-11T21:14:36.265Z,100771.06
2023-04-11T21:17:03.613Z,100769.41
2023-04-11T21:19:30.860Z,100764.28
2023-04-11T21:22:00.325Z,100750.53
2023-04-11T21:24:29.498Z,100745.84
2023-04-11T21:26:59.315Z,100737.88
2023-04-11T21:29:31.224Z,100734.38
2023-04-11T21:31:58.730Z,100728.81
2023-04-11T21:34:25.986Z,100732.31
2023-04-11T21:36:53.789Z,100734.16
2023-04-11T21:39:20.593Z,100725.56
2023-04-11T21:41:56.760Z,100721.25
2023-04-11T21:44:26.575Z,100723.28
2023-04-11T21:46:55.992Z,100721.63
2023-04-11T21:49:22.828Z,100722.44
2023-04-11T21:51:50.869Z,100722.03
2023-04-11T21:54:17.887Z,100725.53
2023-04-11T21:56:45.036Z,100723.69
2023-04-11T21:59:12.535Z,100717.53
2023-04-11T22:01:39.922Z,100703.59
2023-04-11T22:04:10.813Z,100701.75
2023-04-11T22:06:40.881Z,100697.81
2023-04-11T22:09:11.630Z,100692.88
2023-04-11T22:11:38.570Z,100688.38
2023-04-11T22:14:06.141Z,100687.56
2023-04-11T22:16:38.261Z,100673.44
2023-04-11T22:19:05.448Z,100677.94
2023-04-11T22:21:36.324Z,100679.75
2023-04-11T22:24:07.415Z,100675.44
2023-04-11T22:26:34.381Z,100670.94
2023-04-11T22:29:03.854Z,100676.28
2023-04-11T22:31:34.398Z,100669.28
2023-04-11T22:34:02.988Z,100671.09
2023-04-11T22:36:36.108Z,100660.47
2023-04-11T22:39:05.692Z,100653.50
2023-04-11T22:41:34.025Z,100641.22
2023-04-11T22:44:01.497Z,100634.25
2023-04-11T22:46:31.229Z,100637.28
2023-04-11T22:48:58.150Z,100639.13
2023-04-11T22:51:32.551Z,100625.81
2023-04-11T22:53:59.518Z,100624.97
2023-04-11T22:56:28.044Z,100626.81
2023-04-11T22:58:55.723Z,100610.25
2023-04-11T23:01:22.670Z,100609.59
2023-04-11T23:03:50.199Z,100606.53
2023-04-11T23:06:17.724Z,100595.25
2023-04-11T23:08:45.043Z,100596.44
2023-04-11T23:11:13.441Z,100593.78
2023-04-11T23:13:42.188Z,100586.00
2023-04-11T23:16:11.434Z,100584.56
2023-04-11T23:18:38.118Z,100586.59
2023-04-11T23:21:05.381Z,100582.28
2023-04-11T23:23:33.847Z,100571.63
2023-04-11T23:26:01.326Z,100569.16
2023-04-11T23:28:28.626Z,100554.63
2023-04-11T23:30:57.083Z,100561.16
2023-04-11T23:33:25.888Z,100553.16
2023-04-11T23:35:53.292Z,100544.34
2023-04-11T23:38:20.229Z,100537.41
2023-04-11T23:40:47.397Z,100532.88
2023-04-11T23:43:14.603Z,100535.78
2023-04-11T23:45:41.443Z,100531.47
2023-04-11T23:48:10.006Z,100532.47
2023-04-11T23:50:36.951Z,100535.31
2023-04-11T23:53:04.140Z,100517.72
2023-04-11T23:55:32.743Z,100516.47
2023-04-11T23:57:59.644Z,100513.19
